Terminal Aerodrome Forecast
Issued by NWS

Home | Current Version | Previous Version | Text Only | Print | Product List | Glossary On
Versions: 1 2 3 4 5 6 7 8 9 10 11 12 13
000
FTUS46 KPDT 271720
TAFALW
TAF
KALW 271720Z 2718/2818 19008KT P6SM VCSH SCT045 OVC060
     FM272100 23011KT P6SM -SHRA SCT040 BKN050
     FM280400 18009KT P6SM SCT060 BKN200
     FM281600 19008KT P6SM SCT070 BKN150=

USA.gov is the U.S. government's official web portal to all federal, state and local government web resources and services.